»·PEaware :: N700DK KPDX-KBFI

N700DK :: KPDX-KBFI

FLIGHT INFORMATION

Flight Status: Arrived
Operator: Privately registered:
United States
More flights under this callsign
Pilot: Brendan O. (14500)
Aircraft: CESSNA 340
(C340)
More flights by this aircraft type
Origin: KPDX Portland Intl
United States
Destination: KBFI Boeing Field/King Co Intl
United States
More flights between these airports :: More routes between these airports
Route: +PTLD1 OLM OLM2
File this flight plan on PilotEdge
Remarks:
Altitude:
(Current/Filed)
18,000ft
Speed:
(Current/Filed)
185kts
Departed: 10-Jan-19 10:16 AM
Arrived: 10-Jan-19 11:13 AM
Distance/Time
Traveled:
117nm/0:57
Distance/Time
To Go:
Arrived

Flight Plot

Page will automatically refresh every two minutes.


Map Options




Map Legend


Flown Route
Filed Route
Departure Airport
Arrival Airport
Navaid (VOR, NDB)
Fix

Horizontal Profiles

Position Reports

Time Latitude Longitude Heading Altitude Ground
Speed
10-Jan-19 09:51 45.587436 -122.583523 207 20ft 0kts
10-Jan-19 09:52 45.587436 -122.583523 207 20ft 0kts
10-Jan-19 09:53 45.587436 -122.583523 207 20ft 0kts
10-Jan-19 09:54 45.587436 -122.583524 208 20ft 0kts
10-Jan-19 09:55 45.587436 -122.583524 208 20ft 0kts
10-Jan-19 09:56 45.587436 -122.583524 207 20ft 0kts
10-Jan-19 09:57 45.587436 -122.583524 208 20ft 0kts
10-Jan-19 09:58 45.587436 -122.583524 207 20ft 0kts
10-Jan-19 09:59 45.587436 -122.583524 208 20ft 0kts
10-Jan-19 10:00 45.587436 -122.583523 207 20ft 0kts
10-Jan-19 10:01 45.587436 -122.583524 207 20ft 0kts
10-Jan-19 10:02 45.587436 -122.583524 207 20ft 0kts
10-Jan-19 10:03 45.587436 -122.583524 207 20ft 0kts
10-Jan-19 10:04 45.587436 -122.583524 207 20ft 0kts
10-Jan-19 10:05 45.587436 -122.583524 207 20ft 0kts
10-Jan-19 10:06 45.587436 -122.583524 207 20ft 0kts
10-Jan-19 10:07 45.587791 -122.583693 30 20ft 0kts
10-Jan-19 10:08 45.587836 -122.583651 34 20ft 5kts
10-Jan-19 10:09 45.590069 -122.586699 297 20ft 25kts
10-Jan-19 10:10 45.593905 -122.596619 300 23ft 26kts
10-Jan-19 10:11 45.594512 -122.597448 31 23ft 0kts
10-Jan-19 10:12 45.594512 -122.597449 31 23ft 0kts
10-Jan-19 10:13 45.594511 -122.597449 31 23ft 0kts
10-Jan-19 10:14 45.594750 -122.597051 71 23ft 13kts
10-Jan-19 10:15 45.588445 -122.579113 116 330ft 120kts
10-Jan-19 10:16 45.577657 -122.532752 106 2161ft 126kts
10-Jan-19 10:17 45.575227 -122.483560 61 3623ft 142kts
10-Jan-19 10:18 45.609529 -122.478324 352 4740ft 168kts
10-Jan-19 10:19 45.642910 -122.487334 350 5674ft 172kts
10-Jan-19 10:20 45.682828 -122.499287 343 6765ft 176kts
10-Jan-19 10:21 45.719985 -122.513444 343 7612ft 181kts
10-Jan-19 10:22 45.743188 -122.521327 346 8096ft 183kts
10-Jan-19 10:23 45.770212 -122.526975 351 8691ft 184kts
10-Jan-19 10:24 45.802252 -122.534208 343 9460ft 181kts
10-Jan-19 10:25 45.842653 -122.547129 341 10496ft 179kts
10-Jan-19 10:26 45.882731 -122.559582 339 11569ft 176kts
10-Jan-19 10:27 45.929534 -122.574665 339 12840ft 175kts
10-Jan-19 10:28 45.975812 -122.588968 339 14072ft 176kts
10-Jan-19 10:29 46.023023 -122.603543 339 15316ft 177kts
10-Jan-19 10:30 46.070893 -122.618327 338 16555ft 177kts
10-Jan-19 10:31 46.115615 -122.632242 338 17428ft 185kts
10-Jan-19 10:32 46.167981 -122.648484 339 17901ft 200kts
10-Jan-19 10:33 46.222728 -122.665463 339 18155ft 207kts
10-Jan-19 10:35 46.278598 -122.682859 339 18147ft 206kts
10-Jan-19 10:36 46.333813 -122.700176 339 18149ft 206kts
10-Jan-19 10:37 46.389266 -122.717517 339 18148ft 205kts
10-Jan-19 10:38 46.443660 -122.734536 339 18142ft 198kts
10-Jan-19 10:39 46.496600 -122.751254 339 18138ft 196kts
10-Jan-19 10:40 46.549669 -122.768012 339 18010ft 201kts
10-Jan-19 10:41 46.605443 -122.785590 340 17418ft 216kts
10-Jan-19 10:42 46.665112 -122.804330 340 16446ft 224kts
10-Jan-19 10:43 46.725587 -122.823486 340 15512ft 225kts
10-Jan-19 10:44 46.786088 -122.842703 341 14652ft 223kts
10-Jan-19 10:45 46.846272 -122.861871 341 13888ft 221kts
10-Jan-19 10:46 46.905743 -122.880856 341 13191ft 221kts
10-Jan-19 10:47 46.965964 -122.894788 5 12457ft 232kts
10-Jan-19 10:48 47.018168 -122.843021 39 11802ft 231kts
10-Jan-19 10:49 47.064909 -122.783052 41 11145ft 228kts
10-Jan-19 10:50 47.108213 -122.727601 42 10515ft 225kts
10-Jan-19 10:51 47.154356 -122.668530 41 9982ft 213kts
10-Jan-19 10:52 47.197585 -122.613175 41 9918ft 205kts
10-Jan-19 10:53 47.240161 -122.558333 41 9844ft 204kts
10-Jan-19 10:53 47.275546 -122.512712 41 9784ft 204kts
10-Jan-19 10:55 47.330230 -122.481740 338 9664ft 198kts
10-Jan-19 10:56 47.365449 -122.476042 2 9666ft 200kts
10-Jan-19 10:57 47.397338 -122.475156 355 9275ft 213kts
10-Jan-19 10:57 47.425822 -122.476707 355 8843ft 215kts
10-Jan-19 10:58 47.455747 -122.478632 355 8399ft 215kts
10-Jan-19 10:59 47.508368 -122.482469 355 7672ft 212kts
10-Jan-19 11:00 47.554788 -122.511720 325 6866ft 205kts
10-Jan-19 11:01 47.594639 -122.547351 325 6094ft 202kts
10-Jan-19 11:02 47.635149 -122.583626 325 5308ft 199kts
10-Jan-19 11:03 47.677515 -122.590739 40 4247ft 209kts
10-Jan-19 11:04 47.707945 -122.553402 40 3721ft 198kts
10-Jan-19 11:05 47.705489 -122.492652 123 2700ft 180kts
10-Jan-19 11:06 47.678785 -122.432294 123 2146ft 166kts
10-Jan-19 11:07 47.643791 -122.398828 150 2395ft 133kts
10-Jan-19 11:08 47.612679 -122.372546 149 1675ft 123kts
10-Jan-19 11:09 47.584331 -122.348269 147 1025ft 121kts
10-Jan-19 11:10 47.555966 -122.324736 149 441ft 107kts
10-Jan-19 11:11 47.533868 -122.305622 152 17ft 64kts
10-Jan-19 11:12 47.529390 -122.298904 137 18ft 13kts
10-Jan-19 11:13 47.529197 -122.297861 92 19ft 0kts

Navigation Log

Ident Type
Flight plan parsing failed, navigation log unavailable